createdAt,value
2023-02-27T00:00:19.178Z,101755.91
2023-02-27T00:03:05.637Z,101756.41
2023-02-27T00:05:32.278Z,101759.81
2023-02-27T00:07:58.757Z,101767.47
2023-02-27T00:10:24.887Z,101765.75
2023-02-27T00:12:51.566Z,101759.09
2023-02-27T00:15:19.549Z,101756.50
2023-02-27T00:17:46.092Z,101765.66
2023-02-27T00:20:16.526Z,101766.66
2023-02-27T00:22:43.997Z,101769.06
2023-02-27T00:25:11.727Z,101769.06
2023-02-27T00:27:38.699Z,101769.94
2023-02-27T00:30:06.972Z,101774.25
2023-02-27T00:32:35.839Z,101759.25
2023-02-27T00:35:07.100Z,101769.13
2023-02-27T00:37:33.915Z,101771.00
2023-02-27T00:40:00.614Z,101770.28
2023-02-27T00:42:27.864Z,101770.13
2023-02-27T00:44:54.028Z,101768.41
2023-02-27T00:47:20.426Z,101763.06
2023-02-27T00:49:46.631Z,101769.00
2023-02-27T00:52:13.027Z,101771.50
2023-02-27T00:54:39.225Z,101775.56
2023-02-27T00:57:06.296Z,101771.16
2023-02-27T00:59:32.556Z,101777.78
2023-02-27T01:01:59.023Z,101771.22
2023-02-27T01:04:27.544Z,101769.63
2023-02-27T01:06:54.235Z,101770.34
2023-02-27T01:09:20.580Z,101778.44
2023-02-27T01:11:47.067Z,101768.41
2023-02-27T01:14:14.219Z,101766.41
2023-02-27T01:16:40.831Z,101773.22
2023-02-27T01:19:07.693Z,101774.97
2023-02-27T01:21:34.234Z,101767.00
2023-02-27T01:24:00.949Z,101772.22
2023-02-27T01:26:27.395Z,101772.28
2023-02-27T01:28:53.715Z,101768.28
2023-02-27T01:31:20.302Z,101769.03
2023-02-27T01:33:48.262Z,101768.28
2023-02-27T01:36:14.725Z,101772.97
2023-02-27T01:38:41.572Z,101771.41
2023-02-27T01:41:08.223Z,101773.34
2023-02-27T01:44:00.640Z,101778.47
2023-02-27T01:46:29.164Z,101782.13
2023-02-27T01:49:05.605Z,101781.47
2023-02-27T01:51:36.505Z,101789.94
2023-02-27T01:54:05.371Z,101794.66
2023-02-27T01:56:32.086Z,101790.81
2023-02-27T01:59:07.238Z,101792.38
2023-02-27T02:01:34.813Z,101789.66
2023-02-27T02:04:23.752Z,101794.00
2023-02-27T02:06:57.885Z,101788.72
2023-02-27T02:09:25.405Z,101788.78
2023-02-27T02:11:53.743Z,101784.06
2023-02-27T02:14:19.904Z,101787.06
2023-02-27T02:17:11.690Z,101779.00
2023-02-27T02:20:23.373Z,101783.94
2023-02-27T02:23:04.897Z,101794.41
2023-02-27T02:25:58.816Z,101790.69
2023-02-27T02:29:02.422Z,101783.50
2023-02-27T02:32:01.682Z,101796.97
2023-02-27T02:34:56.226Z,101800.31
2023-02-27T02:37:50.302Z,101799.69
2023-02-27T02:40:26.646Z,101809.25
2023-02-27T02:43:07.715Z,101809.91
2023-02-27T02:45:53.984Z,101808.91
2023-02-27T02:48:28.542Z,101811.94
2023-02-27T02:51:07.441Z,101815.16
2023-02-27T02:54:15.565Z,101819.03
2023-02-27T02:57:16.092Z,101815.81
2023-02-27T03:00:06.445Z,101811.53
2023-02-27T03:02:39.166Z,101818.94
2023-02-27T03:05:09.302Z,101818.47
2023-02-27T03:07:44.651Z,101823.69
2023-02-27T03:10:17.137Z,101832.88
2023-02-27T03:12:50.737Z,101826.75
2023-02-27T03:15:20.993Z,101830.88
2023-02-27T03:18:20.053Z,101837.41
2023-02-27T03:20:57.075Z,101833.72
2023-02-27T03:23:34.100Z,101831.72
2023-02-27T03:26:01.504Z,101829.13
2023-02-27T03:28:33.401Z,101833.72
2023-02-27T03:31:09.870Z,101839.34
2023-02-27T03:33:39.882Z,101844.19
2023-02-27T03:36:37.061Z,101844.63
2023-02-27T03:39:13.381Z,101847.97
2023-02-27T03:41:54.388Z,101844.13
2023-02-27T03:44:57.324Z,101842.72
2023-02-27T03:47:23.834Z,101842.16
2023-02-27T03:49:50.762Z,101849.75
2023-02-27T03:52:20.163Z,101859.84
2023-02-27T03:54:54.026Z,101860.03
2023-02-27T03:57:20.416Z,101864.88
2023-02-27T03:59:46.877Z,101868.19
2023-02-27T04:02:14.386Z,101872.81
2023-02-27T04:04:40.884Z,101874.63
2023-02-27T04:07:42.739Z,101876.72
2023-02-27T04:10:09.535Z,101878.03
2023-02-27T04:13:06.754Z,101877.41
2023-02-27T04:15:52.724Z,101877.41
2023-02-27T04:18:34.063Z,101885.84
2023-02-27T04:21:10.035Z,101884.78
2023-02-27T04:23:51.235Z,101891.00
2023-02-27T04:26:31.404Z,101887.38
2023-02-27T04:29:01.171Z,101895.34
2023-02-27T04:31:38.774Z,101892.53
2023-02-27T04:34:10.492Z,101889.00
2023-02-27T04:37:06.695Z,101885.34
2023-02-27T04:40:00.521Z,101890.19
2023-02-27T04:42:31.370Z,101892.91
2023-02-27T04:45:01.910Z,101892.59
2023-02-27T04:47:34.046Z,101895.31
2023-02-27T04:50:18.883Z,101896.31
2023-02-27T04:52:52.120Z,101897.69
2023-02-27T04:55:26.600Z,101898.69
2023-02-27T04:57:59.655Z,101899.50
2023-02-27T05:00:27.982Z,101904.16
2023-02-27T05:03:00.476Z,101907.94
2023-02-27T05:05:30.820Z,101901.53
2023-02-27T05:08:12.451Z,101906.88
2023-02-27T05:11:08.508Z,101911.16
2023-02-27T05:13:50.141Z,101913.91
2023-02-27T05:16:27.533Z,101915.63
2023-02-27T05:18:54.902Z,101916.94
2023-02-27T05:21:24.017Z,101919.72
2023-02-27T05:24:26.623Z,101927.06
2023-02-27T05:27:20.748Z,101921.72
2023-02-27T05:30:03.574Z,101921.09
2023-02-27T05:32:35.885Z,101917.63
2023-02-27T05:35:12.762Z,101928.06
2023-02-27T05:38:11.278Z,101929.22
2023-02-27T05:40:46.781Z,101930.84
2023-02-27T05:43:21.946Z,101921.91
2023-02-27T05:45:51.857Z,101926.38
2023-02-27T05:48:27.087Z,101936.50
2023-02-27T05:50:55.433Z,101935.44
2023-02-27T05:53:27.694Z,101932.66
2023-02-27T05:55:58.155Z,101936.94
2023-02-27T05:58:39.319Z,101939.09
2023-02-27T06:01:08.724Z,101944.06
2023-02-27T06:03:36.551Z,101950.09
2023-02-27T06:06:07.050Z,101943.31
2023-02-27T06:08:34.315Z,101955.38
2023-02-27T06:11:01.565Z,101958.34
2023-02-27T06:13:28.537Z,101968.28
2023-02-27T06:15:55.751Z,101968.03
2023-02-27T06:18:22.336Z,101958.03
2023-02-27T06:20:49.583Z,101958.91
2023-02-27T06:23:16.934Z,101959.06
2023-02-27T06:25:43.697Z,101964.72
2023-02-27T06:28:10.113Z,101967.06
2023-02-27T06:30:37.410Z,101964.09
2023-02-27T06:33:04.746Z,101975.19
2023-02-27T06:35:31.841Z,101967.97
2023-02-27T06:37:58.374Z,101971.50
2023-02-27T06:40:24.981Z,101964.09
2023-02-27T06:42:51.301Z,101969.97
2023-02-27T06:45:17.909Z,101967.69
2023-02-27T06:47:44.180Z,101970.38
2023-02-27T06:50:12.844Z,101988.41
2023-02-27T06:52:40.278Z,101986.25
2023-02-27T06:55:08.470Z,101983.72
2023-02-27T06:57:35.398Z,101988.59
2023-02-27T07:00:05.132Z,101994.22
2023-02-27T07:02:31.351Z,101995.97
2023-02-27T07:04:58.118Z,101995.97
2023-02-27T07:07:35.353Z,101993.47
2023-02-27T07:10:11.360Z,101996.38
2023-02-27T07:12:39.648Z,102001.34
2023-02-27T07:15:08.113Z,102002.06
2023-02-27T07:17:34.638Z,102009.66
2023-02-27T07:20:01.438Z,102012.19
2023-02-27T07:22:27.848Z,102004.41
2023-02-27T07:24:54.549Z,102010.38
2023-02-27T07:27:20.963Z,102018.06
2023-02-27T07:29:52.220Z,102015.75
2023-02-27T07:32:18.951Z,102014.72
2023-02-27T07:34:45.582Z,102010.09
2023-02-27T07:37:12.314Z,102014.72
2023-02-27T07:39:39.883Z,102016.63
2023-02-27T07:42:06.087Z,102020.88
2023-02-27T07:44:33.613Z,102022.91
2023-02-27T07:46:59.786Z,102025.94
2023-02-27T07:49:26.227Z,102026.16
2023-02-27T07:51:52.542Z,102032.53
2023-02-27T07:54:19.205Z,102028.69
2023-02-27T07:56:45.362Z,102028.94
2023-02-27T07:59:11.975Z,102033.31
2023-02-27T08:01:38.456Z,102028.44
2023-02-27T08:04:05.173Z,102029.09
2023-02-27T08:06:31.398Z,102041.59
2023-02-27T08:08:58.179Z,102041.63
2023-02-27T08:11:24.730Z,102035.13
2023-02-27T08:14:06.680Z,102046.22
2023-02-27T08:16:33.469Z,102048.84
2023-02-27T08:19:00.659Z,102042.84
2023-02-27T08:21:29.174Z,102043.50
2023-02-27T08:23:56.178Z,102050.59
2023-02-27T08:26:23.146Z,102052.97
2023-02-27T08:28:50.448Z,102052.81
2023-02-27T08:31:17.017Z,102046.88
2023-02-27T08:33:43.609Z,102058.16
2023-02-27T08:36:10.204Z,102062.03
2023-02-27T08:38:36.898Z,102066.94
2023-02-27T08:41:03.598Z,102058.16
2023-02-27T08:43:30.195Z,102061.50
2023-02-27T08:45:56.462Z,102067.66
2023-02-27T08:48:24.178Z,102066.00
2023-02-27T08:50:51.078Z,102070.41
2023-02-27T08:53:18.049Z,102069.63
2023-02-27T08:55:48.646Z,102079.00
2023-02-27T08:58:17.051Z,102077.97
2023-02-27T09:00:45.174Z,102070.41
2023-02-27T09:03:12.469Z,102077.03
2023-02-27T09:05:41.533Z,102072.38
2023-02-27T09:08:08.968Z,102073.94
2023-02-27T09:10:35.807Z,102080.69
2023-02-27T09:13:02.280Z,102075.50
2023-02-27T09:15:29.442Z,102077.09
2023-02-27T09:17:59.451Z,102088.41
2023-02-27T09:20:25.772Z,102082.75
2023-02-27T09:22:52.253Z,102078.88
2023-02-27T09:25:18.392Z,102082.59
2023-02-27T09:27:45.046Z,102084.59
2023-02-27T09:30:12.084Z,102089.03
2023-02-27T09:32:38.680Z,102093.34
2023-02-27T09:35:05.253Z,102094.84
2023-02-27T09:37:31.876Z,102090.63
2023-02-27T09:39:58.030Z,102097.22
2023-02-27T09:42:32.190Z,102104.66
2023-02-27T09:45:06.230Z,102116.91
2023-02-27T09:47:42.178Z,102108.66
2023-02-27T09:50:38.754Z,102106.66
2023-02-27T09:53:11.895Z,102106.75
2023-02-27T09:55:40.822Z,102116.81
2023-02-27T09:58:10.266Z,102111.72
2023-02-27T10:00:48.368Z,102110.84
2023-02-27T10:03:42.616Z,102107.75
2023-02-27T10:06:14.706Z,102110.09
2023-02-27T10:08:50.052Z,102118.25
2023-02-27T10:11:25.280Z,102118.16
2023-02-27T10:14:08.935Z,102111.75
2023-02-27T10:16:36.385Z,102122.50
2023-02-27T10:19:10.469Z,102119.03
2023-02-27T10:21:44.456Z,102118.50
2023-02-27T10:24:32.355Z,102119.63
2023-02-27T10:27:01.992Z,102121.00
2023-02-27T10:29:35.838Z,102117.69
2023-02-27T10:32:08.845Z,102121.72
2023-02-27T10:34:39.404Z,102118.56
2023-02-27T10:37:08.299Z,102125.94
2023-02-27T10:39:55.876Z,102124.91
2023-02-27T10:42:24.915Z,102127.94
2023-02-27T10:44:53.060Z,102130.91
2023-02-27T10:47:24.698Z,102125.84
2023-02-27T10:49:53.677Z,102124.56
2023-02-27T10:52:20.422Z,102130.56
2023-02-27T10:54:48.253Z,102125.59
2023-02-27T10:57:28.107Z,102121.09
2023-02-27T11:00:17.577Z,102130.00
2023-02-27T11:02:49.483Z,102123.38
2023-02-27T11:05:28.757Z,102128.00
2023-02-27T11:08:20.332Z,102116.34
2023-02-27T11:11:08.885Z,102113.66
2023-02-27T11:13:41.951Z,102115.28
2023-02-27T11:16:11.024Z,102116.84
2023-02-27T11:18:42.842Z,102114.81
2023-02-27T11:21:18.924Z,102116.81
2023-02-27T11:23:56.406Z,102118.44
2023-02-27T11:26:32.585Z,102109.97
2023-02-27T11:29:16.125Z,102112.66
2023-02-27T11:32:14.473Z,102126.59
2023-02-27T11:34:49.170Z,102112.88
2023-02-27T11:37:27.667Z,102114.59
2023-02-27T11:40:15.133Z,102116.34
2023-02-27T11:43:01.219Z,102118.00
2023-02-27T11:46:04.484Z,102114.03
2023-02-27T11:48:20.505Z,102110.69
2023-02-27T11:50:53.983Z,102099.59
2023-02-27T11:53:56.398Z,102107.94
2023-02-27T11:56:29.518Z,102107.09
2023-02-27T11:58:59.311Z,102107.75
2023-02-27T12:01:39.237Z,102110.50
2023-02-27T12:04:12.985Z,102095.31
2023-02-27T12:07:03.170Z,102102.59
2023-02-27T12:09:45.314Z,102101.00
2023-02-27T12:12:20.830Z,102106.97
2023-02-27T12:15:04.468Z,102108.44
2023-02-27T12:17:52.771Z,102107.28
2023-02-27T12:20:22.337Z,102110.34
2023-02-27T12:22:52.230Z,102107.16
2023-02-27T12:25:31.154Z,102105.06
2023-02-27T12:28:05.857Z,102110.59
2023-02-27T12:30:44.183Z,102107.50
2023-02-27T12:33:25.734Z,102120.47
2023-02-27T12:35:59.238Z,102115.63
2023-02-27T12:38:25.620Z,102116.84
2023-02-27T12:41:30.360Z,102119.91
2023-02-27T12:44:41.047Z,102127.34
2023-02-27T12:47:32.352Z,102118.94
2023-02-27T12:50:06.092Z,102117.63
2023-02-27T12:53:00.385Z,102122.31
2023-02-27T12:55:30.260Z,102126.13
2023-02-27T12:58:21.575Z,102123.91
2023-02-27T13:00:55.367Z,102127.06
2023-02-27T13:03:33.937Z,102125.22
2023-02-27T13:06:04.311Z,102123.34
2023-02-27T13:09:04.864Z,102121.78
2023-02-27T13:12:12.903Z,102119.53
2023-02-27T13:14:54.461Z,102123.78
2023-02-27T13:17:29.071Z,102125.31
2023-02-27T13:20:20.500Z,102124.44
2023-02-27T13:22:49.897Z,102124.38
2023-02-27T13:25:17.988Z,102120.44
2023-02-27T13:27:53.380Z,102124.47
2023-02-27T13:30:26.731Z,102120.13
2023-02-27T13:32:59.228Z,102126.72
2023-02-27T13:35:52.432Z,102122.00
2023-02-27T13:38:42.917Z,102114.13
2023-02-27T13:41:24.779Z,102126.28
2023-02-27T13:43:53.572Z,102123.41
2023-02-27T13:46:20.123Z,102130.78
2023-02-27T13:48:51.290Z,102131.31
2023-02-27T13:51:36.774Z,102134.56
2023-02-27T13:54:07.280Z,102137.84
2023-02-27T13:56:35.036Z,102137.72
2023-02-27T13:59:19.952Z,102143.78
2023-02-27T14:01:59.012Z,102142.22
2023-02-27T14:04:28.796Z,102133.22
2023-02-27T14:07:01.551Z,102139.31
2023-02-27T14:09:36.413Z,102134.78
2023-02-27T14:12:05.969Z,102131.75
2023-02-27T14:14:41.147Z,102139.91
2023-02-27T14:17:11.308Z,102141.22
2023-02-27T14:19:40.686Z,102140.78
2023-02-27T14:22:10.897Z,102135.44
2023-02-27T14:24:49.668Z,102145.41
2023-02-27T14:27:42.176Z,102145.75
2023-02-27T14:30:26.660Z,102146.84
2023-02-27T14:33:13.560Z,102155.94
2023-02-27T14:35:45.656Z,102158.34
2023-02-27T14:38:18.706Z,102154.34
2023-02-27T14:41:07.624Z,102151.03
2023-02-27T14:43:39.208Z,102158.13
2023-02-27T14:46:22.902Z,102159.34
2023-02-27T14:48:58.403Z,102162.03
2023-02-27T14:51:26.547Z,102153.09
2023-02-27T14:54:13.548Z,102166.78
2023-02-27T14:56:41.341Z,102168.50
2023-02-27T14:59:42.623Z,102179.00
2023-02-27T15:02:22.795Z,102178.63
2023-02-27T15:05:13.005Z,102179.06
2023-02-27T15:07:39.733Z,102182.47
2023-02-27T15:10:10.234Z,102183.66
2023-02-27T15:12:38.564Z,102188.94
2023-02-27T15:15:07.123Z,102184.94
2023-02-27T15:17:39.567Z,102183.06
2023-02-27T15:20:28.578Z,102193.00
2023-02-27T15:22:57.136Z,102191.16
2023-02-27T15:25:37.767Z,102183.41
2023-02-27T15:28:23.697Z,102199.84
2023-02-27T15:30:52.104Z,102203.94
2023-02-27T15:33:26.900Z,102205.28
2023-02-27T15:35:53.861Z,102203.38
2023-02-27T15:38:33.138Z,102205.03
2023-02-27T15:41:01.757Z,102211.25
2023-02-27T15:43:29.867Z,102215.22
2023-02-27T15:45:57.621Z,102209.69
2023-02-27T15:48:24.935Z,102216.88
2023-02-27T15:50:56.154Z,102215.47
2023-02-27T15:53:29.083Z,102216.66
2023-02-27T15:55:59.965Z,102218.63
2023-02-27T15:58:30.252Z,102224.00
2023-02-27T16:01:01.145Z,102221.06
2023-02-27T16:03:42.135Z,102227.78
2023-02-27T16:06:16.380Z,102233.63
2023-02-27T16:09:18.903Z,102238.03
2023-02-27T16:11:45.998Z,102236.75
2023-02-27T16:14:37.088Z,102236.34
2023-02-27T16:17:21.090Z,102242.44
2023-02-27T16:19:47.632Z,102248.03
2023-02-27T16:22:19.805Z,102249.13
2023-02-27T16:24:47.868Z,102251.38
2023-02-27T16:27:23.070Z,102250.00
2023-02-27T16:29:50.833Z,102248.91
2023-02-27T16:32:27.323Z,102259.13
2023-02-27T16:35:14.861Z,102259.72
2023-02-27T16:37:46.108Z,102259.72
2023-02-27T16:40:14.719Z,102262.50
2023-02-27T16:42:43.169Z,102266.22
2023-02-27T16:45:23.484Z,102279.75
2023-02-27T16:47:53.175Z,102276.28
2023-02-27T16:50:31.133Z,102273.59
2023-02-27T16:52:57.942Z,102283.88
2023-02-27T16:55:25.633Z,102280.00
2023-02-27T16:57:52.650Z,102288.47
2023-02-27T17:00:22.003Z,102284.28
2023-02-27T17:02:53.230Z,102295.44
2023-02-27T17:05:20.247Z,102303.81
2023-02-27T17:07:48.139Z,102295.81
2023-02-27T17:10:19.758Z,102299.19
2023-02-27T17:12:47.269Z,102301.22
2023-02-27T17:15:14.568Z,102302.25
2023-02-27T17:18:09.522Z,102312.28
2023-02-27T17:20:40.393Z,102308.56
2023-02-27T17:23:09.964Z,102314.94
2023-02-27T17:25:36.714Z,102306.75
2023-02-27T17:28:03.755Z,102309.97
2023-02-27T17:30:30.212Z,102311.41
2023-02-27T17:32:59.689Z,102313.59
2023-02-27T17:35:26.834Z,102319.44
2023-02-27T17:37:54.007Z,102313.41
2023-02-27T17:40:20.462Z,102314.22
2023-02-27T17:42:47.497Z,102313.88
2023-02-27T17:45:14.312Z,102316.16
2023-02-27T17:47:42.368Z,102318.31
2023-02-27T17:50:09.483Z,102322.22
2023-02-27T17:52:37.115Z,102330.38
2023-02-27T17:55:07.829Z,102322.19
2023-02-27T17:57:36.441Z,102321.75
2023-02-27T18:00:05.398Z,102328.50
2023-02-27T18:02:32.329Z,102323.34
2023-02-27T18:04:58.849Z,102326.38
2023-02-27T18:07:25.516Z,102330.94
2023-02-27T18:09:52.067Z,102328.50
2023-02-27T18:12:18.956Z,102330.31
2023-02-27T18:14:45.426Z,102330.66
2023-02-27T18:17:12.496Z,102337.81
2023-02-27T18:19:41.087Z,102327.56
2023-02-27T18:22:09.236Z,102329.31
2023-02-27T18:24:37.329Z,102340.97
2023-02-27T18:27:04.394Z,102329.44
2023-02-27T18:29:30.801Z,102331.13
2023-02-27T18:31:57.810Z,102338.41
2023-02-27T18:34:24.777Z,102337.53
2023-02-27T18:36:51.538Z,102334.13
2023-02-27T18:39:20.884Z,102335.84
2023-02-27T18:41:47.775Z,102336.66
2023-02-27T18:44:14.571Z,102341.75
2023-02-27T18:46:41.631Z,102345.47
2023-02-27T18:49:08.358Z,102345.81
2023-02-27T18:51:35.776Z,102340.19
2023-02-27T18:54:04.056Z,102338.16
2023-02-27T18:56:32.278Z,102343.38
2023-02-27T18:59:04.357Z,102344.72
2023-02-27T19:01:35.034Z,102344.41
2023-02-27T19:04:04.162Z,102346.34
2023-02-27T19:06:42.552Z,102346.72
2023-02-27T19:09:17.171Z,102345.78
2023-02-27T19:11:45.416Z,102339.09
2023-02-27T19:14:14.070Z,102346.44
2023-02-27T19:16:42.019Z,102341.75
2023-02-27T19:19:10.009Z,102341.03
2023-02-27T19:21:36.978Z,102335.78
2023-02-27T19:24:03.818Z,102339.34
2023-02-27T19:26:56.096Z,102348.19
2023-02-27T19:32:35.304Z,102344.03
2023-02-27T19:35:05.984Z,102343.09
2023-02-27T19:37:33.075Z,102332.50
2023-02-27T19:49:36.518Z,102340.72
2023-02-27T19:52:03.974Z,102337.50
2023-02-27T19:54:30.962Z,102358.25
2023-02-27T19:57:25.847Z,102361.81
2023-02-27T20:00:00.882Z,102349.66
2023-02-27T20:02:28.632Z,102351.75
2023-02-27T20:04:55.747Z,102352.69
2023-02-27T20:07:28.232Z,102346.34
2023-02-27T20:09:56.182Z,102350.09
2023-02-27T20:12:25.108Z,102345.31
2023-02-27T20:14:52.124Z,102341.75
2023-02-27T20:17:19.442Z,102359.59
2023-02-27T20:19:47.145Z,102356.97
2023-02-27T20:22:15.374Z,102338.84
2023-02-27T20:24:44.372Z,102360.16
2023-02-27T20:27:11.990Z,102350.69
2023-02-27T20:29:40.003Z,102348.91
2023-02-27T20:32:08.360Z,102363.84
2023-02-27T20:34:35.534Z,102368.69
2023-02-27T20:37:03.132Z,102353.63
2023-02-27T20:39:30.302Z,102364.66
2023-02-27T20:41:58.157Z,102372.00
2023-02-27T20:44:25.668Z,102352.25
2023-02-27T20:46:53.510Z,102364.97
2023-02-27T20:49:22.273Z,102374.44
2023-02-27T20:51:49.765Z,102373.63
2023-02-27T20:54:19.609Z,102383.75
2023-02-27T20:56:51.206Z,102359.22
2023-02-27T20:59:22.898Z,102358.22
2023-02-27T21:01:53.368Z,102372.78
2023-02-27T21:04:23.711Z,102377.16
2023-02-27T21:06:51.680Z,102376.28
2023-02-27T21:09:18.677Z,102363.09
2023-02-27T21:11:45.958Z,102374.69
2023-02-27T21:14:13.972Z,102359.97
2023-02-27T21:16:41.165Z,102382.00
2023-02-27T21:19:08.195Z,102378.88
2023-02-27T21:21:36.313Z,102383.66
2023-02-27T21:24:03.745Z,102377.28
2023-02-27T21:26:35.509Z,102381.31
2023-02-27T21:29:06.946Z,102388.28
2023-02-27T21:31:35.679Z,102384.75
2023-02-27T21:34:06.314Z,102400.50
2023-02-27T21:36:37.021Z,102407.00
2023-02-27T21:39:06.476Z,102393.53
2023-02-27T21:41:34.864Z,102394.59
2023-02-27T21:44:04.784Z,102398.88
2023-02-27T21:46:33.186Z,102399.97
2023-02-27T21:49:00.953Z,102412.22
2023-02-27T21:51:39.304Z,102393.78
2023-02-27T21:54:08.951Z,102402.09
2023-02-27T21:56:36.630Z,102407.38
2023-02-27T21:59:06.668Z,102413.63
2023-02-27T22:01:35.255Z,102420.41
2023-02-27T22:04:02.606Z,102406.44
2023-02-27T22:06:32.301Z,102395.94
2023-02-27T22:09:04.010Z,102406.38
2023-02-27T22:11:33.712Z,102395.44
2023-02-27T22:14:01.092Z,102404.56
2023-02-27T22:16:28.154Z,102408.84
2023-02-27T22:18:54.598Z,102423.78
2023-02-27T22:21:24.424Z,102411.13
2023-02-27T22:23:51.128Z,102426.47
2023-02-27T22:26:21.055Z,102418.97
2023-02-27T22:28:47.185Z,102424.47
2023-02-27T22:31:17.706Z,102428.16
2023-02-27T22:33:47.183Z,102423.53
2023-02-27T22:36:20.266Z,102422.34
2023-02-27T22:38:47.489Z,102416.16
2023-02-27T22:41:39.633Z,102417.16
2023-02-27T22:44:08.789Z,102421.19
2023-02-27T22:46:38.359Z,102426.84
2023-02-27T22:49:12.685Z,102429.47
2023-02-27T22:51:39.317Z,102435.47
2023-02-27T22:54:07.218Z,102436.47
2023-02-27T22:56:36.387Z,102430.84
2023-02-27T22:59:04.444Z,102434.47
2023-02-27T23:01:34.130Z,102438.81
2023-02-27T23:04:07.076Z,102432.91
2023-02-27T23:06:36.800Z,102438.78
2023-02-27T23:09:05.072Z,102434.59
2023-02-27T23:11:32.143Z,102444.94
2023-02-27T23:13:59.265Z,102442.56
2023-02-27T23:16:25.803Z,102438.78
2023-02-27T23:18:54.993Z,102444.00
2023-02-27T23:21:41.136Z,102438.56
2023-02-27T23:24:10.061Z,102441.50
2023-02-27T23:26:42.481Z,102449.34
2023-02-27T23:29:09.493Z,102449.59
2023-02-27T23:31:36.974Z,102454.91
2023-02-27T23:34:07.264Z,102451.97
2023-02-27T23:36:35.164Z,102449.09
2023-02-27T23:39:02.716Z,102452.66
2023-02-27T23:41:29.897Z,102448.31
2023-02-27T23:44:14.755Z,102450.53
2023-02-27T23:46:41.238Z,102450.47
2023-02-27T23:49:08.105Z,102452.34
2023-02-27T23:51:35.066Z,102456.50
2023-02-27T23:54:01.449Z,102462.00
2023-02-27T23:56:29.691Z,102455.91
2023-02-27T23:59:01.719Z,102451.59
